sensor_id;sensor_type;location;lat;lon;timestamp;pressure;altitude;pressure_sealevel;temperature;humidity
65553;BME280;72126;51.560;14.368;2023-11-19T00:00:19;100366.66;;;12.05;59.20
65553;BME280;72126;51.560;14.368;2023-11-19T00:02:45;100367.47;;;12.06;59.26
65553;BME280;72126;51.560;14.368;2023-11-19T00:05:10;100371.09;;;12.05;59.39
65553;BME280;72126;51.560;14.368;2023-11-19T00:07:36;100373.72;;;12.05;58.95
65553;BME280;72126;51.560;14.368;2023-11-19T00:10:01;100382.41;;;12.05;59.12
65553;BME280;72126;51.560;14.368;2023-11-19T00:12:26;100375.50;;;12.04;59.17
65553;BME280;72126;51.560;14.368;2023-11-19T00:14:51;100368.47;;;12.05;58.89
65553;BME280;72126;51.560;14.368;2023-11-19T00:17:16;100385.03;;;12.05;59.23
65553;BME280;72126;51.560;14.368;2023-11-19T00:19:42;100356.16;;;12.05;59.05
65553;BME280;72126;51.560;14.368;2023-11-19T00:22:07;100336.97;;;12.05;59.30
65553;BME280;72126;51.560;14.368;2023-11-19T00:24:32;100336.97;;;12.05;59.00
65553;BME280;72126;51.560;14.368;2023-11-19T00:26:57;100339.59;;;12.05;59.29
65553;BME280;72126;51.560;14.368;2023-11-19T00:29:22;100334.34;;;12.05;58.91
65553;BME280;72126;51.560;14.368;2023-11-19T00:31:47;100328.28;;;12.04;59.34
65553;BME280;72126;51.560;14.368;2023-11-19T00:34:13;100308.09;;;12.05;59.40
65553;BME280;72126;51.560;14.368;2023-11-19T00:36:38;100300.25;;;12.05;58.95
65553;BME280;72126;51.560;14.368;2023-11-19T00:39:03;100285.47;;;12.04;59.26
65553;BME280;72126;51.560;14.368;2023-11-19T00:41:28;100291.53;;;12.04;59.26
65553;BME280;72126;51.560;14.368;2023-11-19T00:43:53;100295.97;;;12.04;59.11
65553;BME280;72126;51.560;14.368;2023-11-19T00:46:19;100286.31;;;12.04;59.41
65553;BME280;72126;51.560;14.368;2023-11-19T00:48:44;100277.63;;;12.04;59.19
65553;BME280;72126;51.560;14.368;2023-11-19T00:51:11;100275.00;;;12.04;59.23
65553;BME280;72126;51.560;14.368;2023-11-19T00:53:36;100285.47;;;12.04;59.07
65553;BME280;72126;51.560;14.368;2023-11-19T00:56:02;100280.22;;;12.04;59.19
65553;BME280;72126;51.560;14.368;2023-11-19T00:58:27;100274.00;;;12.05;58.93
65553;BME280;72126;51.560;14.368;2023-11-19T01:00:52;100269.75;;;12.04;59.30
65553;BME280;72126;51.560;14.368;2023-11-19T01:03:17;100266.31;;;12.03;59.28
65553;BME280;72126;51.560;14.368;2023-11-19T01:05:42;100248.75;;;12.04;59.06
65553;BME280;72126;51.560;14.368;2023-11-19T01:08:08;100244.50;;;12.03;58.94
65553;BME280;72126;51.560;14.368;2023-11-19T01:10:33;100245.31;;;12.03;59.20
65553;BME280;72126;51.560;14.368;2023-11-19T01:12:58;100231.38;;;12.03;58.98
65553;BME280;72126;51.560;14.368;2023-11-19T01:15:24;100220.06;;;12.02;59.15
65553;BME280;72126;51.560;14.368;2023-11-19T01:17:49;100221.88;;;12.02;59.27
65553;BME280;72126;51.560;14.368;2023-11-19T01:20:14;100227.13;;;12.02;59.32
65553;BME280;72126;51.560;14.368;2023-11-19T01:22:39;100233.19;;;12.02;59.10
65553;BME280;72126;51.560;14.368;2023-11-19T01:25:05;100224.50;;;12.02;59.35
65553;BME280;72126;51.560;14.368;2023-11-19T01:27:30;100203.50;;;12.02;59.31
65553;BME280;72126;51.560;14.368;2023-11-19T01:29:56;100196.59;;;12.01;59.22
65553;BME280;72126;51.560;14.368;2023-11-19T01:32:21;100205.31;;;12.01;59.08
65553;BME280;72126;51.560;14.368;2023-11-19T01:34:46;100203.50;;;12.02;59.00
65553;BME280;72126;51.560;14.368;2023-11-19T01:37:11;100199.06;;;12.02;59.06
65553;BME280;72126;51.560;14.368;2023-11-19T01:39:37;100187.75;;;12.02;59.40
65553;BME280;72126;51.560;14.368;2023-11-19T01:42:02;100189.56;;;12.01;59.43
65553;BME280;72126;51.560;14.368;2023-11-19T01:44:27;100175.59;;;12.01;59.17
65553;BME280;72126;51.560;14.368;2023-11-19T01:46:52;100164.16;;;12.02;59.36
65553;BME280;72126;51.560;14.368;2023-11-19T01:49:18;100153.78;;;12.00;59.04
65553;BME280;72126;51.560;14.368;2023-11-19T01:51:45;100156.28;;;12.02;59.08
65553;BME280;72126;51.560;14.368;2023-11-19T01:54:11;100148.41;;;12.02;59.26
65553;BME280;72126;51.560;14.368;2023-11-19T01:56:40;100137.25;;;12.00;59.25
65553;BME280;72126;51.560;14.368;2023-11-19T01:59:07;100128.38;;;12.01;59.20
65553;BME280;72126;51.560;14.368;2023-11-19T02:01:33;100112.63;;;12.01;59.23
65553;BME280;72126;51.560;14.368;2023-11-19T02:03:59;100104.75;;;12.01;59.10
65553;BME280;72126;51.560;14.368;2023-11-19T02:06:25;100100.50;;;12.00;59.35
65553;BME280;72126;51.560;14.368;2023-11-19T02:08:50;100087.38;;;12.00;59.58
65553;BME280;72126;51.560;14.368;2023-11-19T02:11:16;100075.91;;;12.01;59.05
65553;BME280;72126;51.560;14.368;2023-11-19T02:13:41;100078.69;;;11.99;59.22
65553;BME280;72126;51.560;14.368;2023-11-19T02:16:06;100085.59;;;12.00;59.06
65553;BME280;72126;51.560;14.368;2023-11-19T02:18:32;100067.41;;;11.99;59.28
65553;BME280;72126;51.560;14.368;2023-11-19T02:20:58;100061.16;;;12.00;59.43
65553;BME280;72126;51.560;14.368;2023-11-19T02:23:25;100056.91;;;11.99;59.27
65553;BME280;72126;51.560;14.368;2023-11-19T02:26:15;100053.47;;;11.98;58.74
65553;BME280;72126;51.560;14.368;2023-11-19T02:28:43;100064.78;;;11.99;59.02
65553;BME280;72126;51.560;14.368;2023-11-19T02:31:08;100052.66;;;11.98;59.46
65553;BME280;72126;51.560;14.368;2023-11-19T02:33:34;100035.91;;;11.99;59.04
65553;BME280;72126;51.560;14.368;2023-11-19T02:35:59;100035.09;;;11.98;59.05
65553;BME280;72126;51.560;14.368;2023-11-19T02:38:24;100029.03;;;11.98;58.99
65553;BME280;72126;51.560;14.368;2023-11-19T02:40:49;100008.84;;;11.98;59.50
65553;BME280;72126;51.560;14.368;2023-11-19T02:43:15;99988.69;;;11.99;59.00
65553;BME280;72126;51.560;14.368;2023-11-19T02:45:40;99995.75;;;11.98;59.19
65553;BME280;72126;51.560;14.368;2023-11-19T02:48:05;100000.19;;;11.98;59.01
65553;BME280;72126;51.560;14.368;2023-11-19T02:50:31;100002.00;;;11.97;59.40
65553;BME280;72126;51.560;14.368;2023-11-19T02:52:56;99996.91;;;11.96;59.08
65553;BME280;72126;51.560;14.368;2023-11-19T02:55:21;99983.63;;;11.97;59.19
65553;BME280;72126;51.560;14.368;2023-11-19T02:57:47;99967.06;;;11.97;59.06
65553;BME280;72126;51.560;14.368;2023-11-19T03:00:18;99966.06;;;11.98;59.01
65553;BME280;72126;51.560;14.368;2023-11-19T03:02:44;99957.38;;;11.97;59.32
65553;BME280;72126;51.560;14.368;2023-11-19T03:05:11;99953.94;;;11.97;59.16
65553;BME280;72126;51.560;14.368;2023-11-19T03:07:36;99937.41;;;11.96;58.81
65553;BME280;72126;51.560;14.368;2023-11-19T03:10:01;99934.78;;;11.96;59.06
65553;BME280;72126;51.560;14.368;2023-11-19T03:12:27;99932.16;;;11.96;59.46
65553;BME280;72126;51.560;14.368;2023-11-19T03:14:52;99919.03;;;11.96;59.07
65553;BME280;72126;51.560;14.368;2023-11-19T03:17:17;99912.97;;;11.96;59.27
65553;BME280;72126;51.560;14.368;2023-11-19T03:19:42;99913.78;;;11.96;59.04
65553;BME280;72126;51.560;14.368;2023-11-19T03:22:07;99896.38;;;11.95;59.00
65553;BME280;72126;51.560;14.368;2023-11-19T03:24:33;99886.75;;;11.96;59.16
65553;BME280;72126;51.560;14.368;2023-11-19T03:26:58;99874.59;;;11.95;59.36
65553;BME280;72126;51.560;14.368;2023-11-19T03:29:23;99867.53;;;11.95;59.30
65553;BME280;72126;51.560;14.368;2023-11-19T03:31:48;99861.47;;;11.95;59.32
65553;BME280;72126;51.560;14.368;2023-11-19T03:34:13;99884.94;;;11.96;58.93
65553;BME280;72126;51.560;14.368;2023-11-19T03:36:38;99869.34;;;11.95;59.24
65553;BME280;72126;51.560;14.368;2023-11-19T03:39:04;99866.72;;;11.95;59.25
65553;BME280;72126;51.560;14.368;2023-11-19T03:41:29;99838.84;;;11.94;59.21
65553;BME280;72126;51.560;14.368;2023-11-19T03:43:54;99834.44;;;11.94;59.21
65553;BME280;72126;51.560;14.368;2023-11-19T03:46:20;99838.84;;;11.94;59.13
65553;BME280;72126;51.560;14.368;2023-11-19T03:48:47;99833.63;;;11.94;59.27
65553;BME280;72126;51.560;14.368;2023-11-19T03:51:12;99842.28;;;11.94;58.93
65553;BME280;72126;51.560;14.368;2023-11-19T03:53:37;99842.47;;;11.93;58.96
65553;BME280;72126;51.560;14.368;2023-11-19T03:56:02;99851.78;;;11.95;59.22
65553;BME280;72126;51.560;14.368;2023-11-19T03:58:27;99838.84;;;11.94;58.90
65553;BME280;72126;51.560;14.368;2023-11-19T04:00:53;99843.28;;;11.93;58.95
65553;BME280;72126;51.560;14.368;2023-11-19T04:03:21;99842.28;;;11.94;59.15
65553;BME280;72126;51.560;14.368;2023-11-19T04:05:46;99828.38;;;11.94;59.47
65553;BME280;72126;51.560;14.368;2023-11-19T04:08:11;99809.19;;;11.93;59.33
65553;BME280;72126;51.560;14.368;2023-11-19T04:10:36;99815.25;;;11.94;58.96
65553;BME280;72126;51.560;14.368;2023-11-19T04:13:01;99815.44;;;11.92;59.30
65553;BME280;72126;51.560;14.368;2023-11-19T04:15:26;99817.06;;;11.93;59.25
65553;BME280;72126;51.560;14.368;2023-11-19T04:17:52;99812.00;;;11.91;58.89
65553;BME280;72126;51.560;14.368;2023-11-19T04:20:17;99797.06;;;11.92;58.84
65553;BME280;72126;51.560;14.368;2023-11-19T04:22:42;99789.03;;;11.94;59.42
65553;BME280;72126;51.560;14.368;2023-11-19T04:25:07;99779.72;;;11.91;59.22
65553;BME280;72126;51.560;14.368;2023-11-19T04:27:33;99782.16;;;11.93;59.04
65553;BME280;72126;51.560;14.368;2023-11-19T04:29:58;99769.03;;;11.93;59.06
65553;BME280;72126;51.560;14.368;2023-11-19T04:32:23;99770.03;;;11.91;58.98
65553;BME280;72126;51.560;14.368;2023-11-19T04:34:48;99762.97;;;11.92;59.36
65553;BME280;72126;51.560;14.368;2023-11-19T04:37:14;99769.84;;;11.93;59.16
65553;BME280;72126;51.560;14.368;2023-11-19T04:39:39;99753.28;;;11.93;59.21
65553;BME280;72126;51.560;14.368;2023-11-19T04:42:04;99750.84;;;11.91;59.20
65553;BME280;72126;51.560;14.368;2023-11-19T04:44:30;99751.47;;;11.93;59.18
65553;BME280;72126;51.560;14.368;2023-11-19T04:46:55;99737.56;;;11.93;59.09
65553;BME280;72126;51.560;14.368;2023-11-19T04:49:20;99734.94;;;11.93;59.14
65553;BME280;72126;51.560;14.368;2023-11-19T04:51:46;99724.44;;;11.93;59.00
65553;BME280;72126;51.560;14.368;2023-11-19T04:54:11;99725.25;;;11.93;59.35
65553;BME280;72126;51.560;14.368;2023-11-19T04:56:37;99725.44;;;11.91;58.81
65553;BME280;72126;51.560;14.368;2023-11-19T04:59:02;99730.50;;;11.93;59.16
65553;BME280;72126;51.560;14.368;2023-11-19T05:01:27;99721.81;;;11.93;58.87
65553;BME280;72126;51.560;14.368;2023-11-19T05:03:52;99704.44;;;11.91;59.01
65553;BME280;72126;51.560;14.368;2023-11-19T05:06:17;99707.69;;;11.94;58.84
65553;BME280;72126;51.560;14.368;2023-11-19T05:08:44;99700.84;;;11.93;59.02
65553;BME280;72126;51.560;14.368;2023-11-19T05:11:09;99699.22;;;11.91;59.34
65553;BME280;72126;51.560;14.368;2023-11-19T05:13:34;99688.72;;;11.91;59.01
65553;BME280;72126;51.560;14.368;2023-11-19T05:15:59;99696.59;;;11.91;59.17
65553;BME280;72126;51.560;14.368;2023-11-19T05:18:24;99688.72;;;11.91;59.05
65553;BME280;72126;51.560;14.368;2023-11-19T05:20:50;99688.53;;;11.93;59.16
65553;BME280;72126;51.560;14.368;2023-11-19T05:23:15;99678.22;;;11.91;59.05
65553;BME280;72126;51.560;14.368;2023-11-19T05:25:40;99669.34;;;11.93;59.19
65553;BME280;72126;51.560;14.368;2023-11-19T05:28:05;99659.88;;;11.91;59.12
65553;BME280;72126;51.560;14.368;2023-11-19T05:30:31;99660.88;;;11.90;58.99
65553;BME280;72126;51.560;14.368;2023-11-19T05:32:56;99648.56;;;11.91;59.19
65553;BME280;72126;51.560;14.368;2023-11-19T05:35:21;99641.50;;;11.91;58.57
65553;BME280;72126;51.560;14.368;2023-11-19T05:37:46;99637.88;;;11.93;59.08
65553;BME280;72126;51.560;14.368;2023-11-19T05:40:11;99638.69;;;11.93;59.02
65553;BME280;72126;51.560;14.368;2023-11-19T05:42:37;99633.63;;;11.91;58.97
65553;BME280;72126;51.560;14.368;2023-11-19T05:45:02;99641.50;;;11.91;58.97
65553;BME280;72126;51.560;14.368;2023-11-19T05:47:27;99636.25;;;11.91;59.22
65553;BME280;72126;51.560;14.368;2023-11-19T05:49:53;99635.44;;;11.91;59.12
65553;BME280;72126;51.560;14.368;2023-11-19T05:52:18;99623.13;;;11.91;58.98
65553;BME280;72126;51.560;14.368;2023-11-19T05:54:43;99614.47;;;11.91;58.86
65553;BME280;72126;51.560;14.368;2023-11-19T05:57:08;99610.03;;;11.91;59.22
65553;BME280;72126;51.560;14.368;2023-11-19T05:59:33;99616.09;;;11.92;58.97
65553;BME280;72126;51.560;14.368;2023-11-19T06:01:59;99600.53;;;11.90;59.10
65553;BME280;72126;51.560;14.368;2023-11-19T06:04:24;99597.91;;;11.90;59.32
65553;BME280;72126;51.560;14.368;2023-11-19T06:06:49;99599.53;;;11.91;59.16
65553;BME280;72126;51.560;14.368;2023-11-19T06:09:14;99601.16;;;11.93;58.95
65553;BME280;72126;51.560;14.368;2023-11-19T06:11:40;99600.34;;;11.92;59.12
65553;BME280;72126;51.560;14.368;2023-11-19T06:14:06;99599.53;;;11.91;59.16
65553;BME280;72126;51.560;14.368;2023-11-19T06:16:31;99583.00;;;11.91;59.11
65553;BME280;72126;51.560;14.368;2023-11-19T06:18:56;99580.38;;;11.91;59.28
65553;BME280;72126;51.560;14.368;2023-11-19T06:21:21;99573.31;;;11.91;59.11
65553;BME280;72126;51.560;14.368;2023-11-19T06:23:47;99569.06;;;11.90;59.00
65553;BME280;72126;51.560;14.368;2023-11-19T06:26:12;99571.69;;;11.90;59.23
65553;BME280;72126;51.560;14.368;2023-11-19T06:28:37;99568.06;;;11.91;59.27
65553;BME280;72126;51.560;14.368;2023-11-19T06:31:03;99549.06;;;11.89;59.08
65553;BME280;72126;51.560;14.368;2023-11-19T06:33:28;99547.25;;;11.90;59.36
65553;BME280;72126;51.560;14.368;2023-11-19T06:35:54;99544.66;;;11.90;59.17
65553;BME280;72126;51.560;14.368;2023-11-19T06:38:19;99545.47;;;11.90;59.19
65553;BME280;72126;51.560;14.368;2023-11-19T06:40:44;99524.47;;;11.90;59.05
65553;BME280;72126;51.560;14.368;2023-11-19T06:43:09;99518.41;;;11.90;59.20
65553;BME280;72126;51.560;14.368;2023-11-19T06:45:34;99516.75;;;11.89;59.14
65553;BME280;72126;51.560;14.368;2023-11-19T06:48:03;99514.94;;;11.89;59.07
65553;BME280;72126;51.560;14.368;2023-11-19T06:50:29;99526.28;;;11.90;59.08
65553;BME280;72126;51.560;14.368;2023-11-19T06:52:54;99527.25;;;11.89;59.07
65553;BME280;72126;51.560;14.368;2023-11-19T06:55:19;99543.81;;;11.89;59.11
65553;BME280;72126;51.560;14.368;2023-11-19T06:57:44;99525.44;;;11.89;59.07
65553;BME280;72126;51.560;14.368;2023-11-19T07:00:10;99524.63;;;11.89;59.29
65553;BME280;72126;51.560;14.368;2023-11-19T07:02:35;99537.75;;;11.89;59.33
65553;BME280;72126;51.560;14.368;2023-11-19T07:05:00;99531.53;;;11.90;59.25
65553;BME280;72126;51.560;14.368;2023-11-19T07:07:25;99531.53;;;11.90;59.37
65553;BME280;72126;51.560;14.368;2023-11-19T07:09:51;99528.91;;;11.90;58.96
65553;BME280;72126;51.560;14.368;2023-11-19T07:12:16;99542.03;;;11.90;59.07
65553;BME280;72126;51.560;14.368;2023-11-19T07:14:41;99536.78;;;11.90;59.05
65553;BME280;72126;51.560;14.368;2023-11-19T07:17:08;99534.16;;;11.90;59.30
65553;BME280;72126;51.560;14.368;2023-11-19T07:19:33;99528.06;;;11.89;59.24
65553;BME280;72126;51.560;14.368;2023-11-19T07:21:58;99539.56;;;11.88;58.97
65553;BME280;72126;51.560;14.368;2023-11-19T07:24:23;99539.41;;;11.90;59.09
65553;BME280;72126;51.560;14.368;2023-11-19T07:26:48;99521.03;;;11.90;59.08
65553;BME280;72126;51.560;14.368;2023-11-19T07:29:14;99524.47;;;11.90;59.13
65553;BME280;72126;51.560;14.368;2023-11-19T07:31:39;99515.78;;;11.90;58.98
65553;BME280;72126;51.560;14.368;2023-11-19T07:34:05;99502.69;;;11.90;58.91
65553;BME280;72126;51.560;14.368;2023-11-19T07:36:30;99514.94;;;11.89;59.00
65553;BME280;72126;51.560;14.368;2023-11-19T07:38:55;99518.41;;;11.90;59.39
65553;BME280;72126;51.560;14.368;2023-11-19T07:41:20;99514.94;;;11.89;58.94
65553;BME280;72126;51.560;14.368;2023-11-19T07:43:45;99507.91;;;11.90;59.12
65553;BME280;72126;51.560;14.368;2023-11-19T07:46:14;99499.22;;;11.89;59.05
65553;BME280;72126;51.560;14.368;2023-11-19T07:48:40;99501.84;;;11.89;59.07
65553;BME280;72126;51.560;14.368;2023-11-19T07:51:05;99498.41;;;11.89;59.20
65553;BME280;72126;51.560;14.368;2023-11-19T07:53:30;99497.59;;;11.88;58.91
65553;BME280;72126;51.560;14.368;2023-11-19T07:55:56;99493.16;;;11.89;59.13
65553;BME280;72126;51.560;14.368;2023-11-19T07:58:21;99493.97;;;11.89;59.07
65553;BME280;72126;51.560;14.368;2023-11-19T08:00:46;99496.59;;;11.89;59.03
65553;BME280;72126;51.560;14.368;2023-11-19T08:03:11;99500.22;;;11.88;59.18
65553;BME280;72126;51.560;14.368;2023-11-19T08:05:37;99490.53;;;11.89;59.12
65553;BME280;72126;51.560;14.368;2023-11-19T08:08:02;99484.47;;;11.88;59.26
65553;BME280;72126;51.560;14.368;2023-11-19T08:10:27;99482.84;;;11.87;59.21
65553;BME280;72126;51.560;14.368;2023-11-19T08:12:52;99488.72;;;11.89;59.29
65553;BME280;72126;51.560;14.368;2023-11-19T08:15:17;99480.84;;;11.89;59.17
65553;BME280;72126;51.560;14.368;2023-11-19T08:17:43;99481.69;;;11.90;59.06
65553;BME280;72126;51.560;14.368;2023-11-19T08:20:09;99473.81;;;11.90;59.07
65553;BME280;72126;51.560;14.368;2023-11-19T08:22:34;99478.22;;;11.89;58.80
65553;BME280;72126;51.560;14.368;2023-11-19T08:24:59;99475.59;;;11.89;58.99
65553;BME280;72126;51.560;14.368;2023-11-19T08:27:25;99474.81;;;11.89;59.04
65553;BME280;72126;51.560;14.368;2023-11-19T08:29:51;99465.13;;;11.89;59.17
65553;BME280;72126;51.560;14.368;2023-11-19T08:32:16;99463.50;;;11.88;59.12
65553;BME280;72126;51.560;14.368;2023-11-19T08:34:41;99463.50;;;11.88;59.30
65553;BME280;72126;51.560;14.368;2023-11-19T08:37:06;99459.88;;;11.89;59.27
65553;BME280;72126;51.560;14.368;2023-11-19T08:39:31;99460.72;;;11.90;59.17
65553;BME280;72126;51.560;14.368;2023-11-19T08:41:56;99467.75;;;11.89;59.41
65553;BME280;72126;51.560;14.368;2023-11-19T08:44:22;99466.94;;;11.89;59.05
65553;BME280;72126;51.560;14.368;2023-11-19T08:46:50;99462.50;;;11.89;58.96
65553;BME280;72126;51.560;14.368;2023-11-19T08:49:16;99455.63;;;11.88;59.16
65553;BME280;72126;51.560;14.368;2023-11-19T08:51:41;99461.53;;;11.90;59.31
65553;BME280;72126;51.560;14.368;2023-11-19T08:54:06;99450.22;;;11.90;59.05
65553;BME280;72126;51.560;14.368;2023-11-19T08:56:31;99461.69;;;11.89;58.95
65553;BME280;72126;51.560;14.368;2023-11-19T08:58:57;99449.38;;;11.89;59.22
65553;BME280;72126;51.560;14.368;2023-11-19T09:01:22;99454.47;;;11.91;59.07
65553;BME280;72126;51.560;14.368;2023-11-19T09:03:47;99458.91;;;11.90;59.07
65553;BME280;72126;51.560;14.368;2023-11-19T09:06:12;99455.47;;;11.90;59.06
65553;BME280;72126;51.560;14.368;2023-11-19T09:08:39;99456.28;;;11.90;59.31
65553;BME280;72126;51.560;14.368;2023-11-19T09:11:06;99452.84;;;11.90;59.16
65553;BME280;72126;51.560;14.368;2023-11-19T09:13:32;99447.59;;;11.90;59.07
65553;BME280;72126;51.560;14.368;2023-11-19T09:15:57;99450.22;;;11.90;59.28
65553;BME280;72126;51.560;14.368;2023-11-19T09:18:22;99445.78;;;11.90;59.24
65553;BME280;72126;51.560;14.368;2023-11-19T09:20:47;99441.34;;;11.91;59.19
65553;BME280;72126;51.560;14.368;2023-11-19T09:23:12;99449.22;;;11.91;59.53
65553;BME280;72126;51.560;14.368;2023-11-19T09:25:37;99442.97;;;11.92;59.09
65553;BME280;72126;51.560;14.368;2023-11-19T09:28:03;99436.91;;;11.91;59.28
65553;BME280;72126;51.560;14.368;2023-11-19T09:30:28;99441.16;;;11.93;59.29
65553;BME280;72126;51.560;14.368;2023-11-19T09:32:53;99441.16;;;11.93;59.03
65553;BME280;72126;51.560;14.368;2023-11-19T09:35:18;99444.59;;;11.93;59.27
65553;BME280;72126;51.560;14.368;2023-11-19T09:37:43;99437.72;;;11.92;59.05
65553;BME280;72126;51.560;14.368;2023-11-19T09:40:09;99441.78;;;11.95;59.43
65553;BME280;72126;51.560;14.368;2023-11-19T09:42:47;99439.34;;;11.93;59.19
65553;BME280;72126;51.560;14.368;2023-11-19T09:45:16;99434.91;;;11.94;59.26
65553;BME280;72126;51.560;14.368;2023-11-19T09:47:45;99439.16;;;11.95;59.00
65553;BME280;72126;51.560;14.368;2023-11-19T09:50:18;99441.78;;;11.95;59.38
65553;BME280;72126;51.560;14.368;2023-11-19T09:52:44;99428.66;;;11.95;59.33
65553;BME280;72126;51.560;14.368;2023-11-19T09:55:10;99432.09;;;11.95;59.28
65553;BME280;72126;51.560;14.368;2023-11-19T09:57:37;99428.66;;;11.95;59.46
65553;BME280;72126;51.560;14.368;2023-11-19T10:00:04;99426.84;;;11.95;59.15
65553;BME280;72126;51.560;14.368;2023-11-19T10:02:31;99424.06;;;11.97;59.17
65553;BME280;72126;51.560;14.368;2023-11-19T10:04:58;99420.63;;;11.96;59.30
65553;BME280;72126;51.560;14.368;2023-11-19T10:07:24;99424.88;;;11.97;59.17
65553;BME280;72126;51.560;14.368;2023-11-19T10:09:50;99415.19;;;11.98;59.55
65553;BME280;72126;51.560;14.368;2023-11-19T10:12:16;99415.19;;;11.98;59.33
65553;BME280;72126;51.560;14.368;2023-11-19T10:14:42;99409.75;;;11.99;59.43
65553;BME280;72126;51.560;14.368;2023-11-19T10:17:08;99407.94;;;12.00;59.47
65553;BME280;72126;51.560;14.368;2023-11-19T10:19:33;99418.44;;;12.00;59.11
65553;BME280;72126;51.560;14.368;2023-11-19T10:22:03;99402.69;;;12.00;59.55
65553;BME280;72126;51.560;14.368;2023-11-19T10:24:31;99401.69;;;12.01;59.18
65553;BME280;72126;51.560;14.368;2023-11-19T10:26:57;99405.97;;;12.02;59.12
65553;BME280;72126;51.560;14.368;2023-11-19T10:29:23;99410.38;;;12.01;59.10
65553;BME280;72126;51.560;14.368;2023-11-19T10:31:56;99412.00;;;12.02;59.22
65553;BME280;72126;51.560;14.368;2023-11-19T10:34:24;99399.69;;;12.03;59.18
65553;BME280;72126;51.560;14.368;2023-11-19T10:36:50;99403.94;;;12.04;59.11
65553;BME280;72126;51.560;14.368;2023-11-19T10:39:15;99399.50;;;12.04;59.29
65553;BME280;72126;51.560;14.368;2023-11-19T10:41:40;99400.31;;;12.05;59.07
65553;BME280;72126;51.560;14.368;2023-11-19T10:44:06;99405.56;;;12.05;59.39
65553;BME280;72126;51.560;14.368;2023-11-19T10:46:40;99391.44;;;12.06;59.06
65553;BME280;72126;51.560;14.368;2023-11-19T10:49:09;99382.75;;;12.05;59.31
65553;BME280;72126;51.560;14.368;2023-11-19T10:51:34;99388.66;;;12.07;59.26
65553;BME280;72126;51.560;14.368;2023-11-19T10:54:06;99378.31;;;12.06;59.41
65553;BME280;72126;51.560;14.368;2023-11-19T10:56:33;99379.78;;;12.08;59.45
65553;BME280;72126;51.560;14.368;2023-11-19T10:58:59;99378.97;;;12.08;59.36
65553;BME280;72126;51.560;14.368;2023-11-19T11:01:27;99381.41;;;12.09;59.42
65553;BME280;72126;51.560;14.368;2023-11-19T11:03:59;99388.25;;;12.10;59.36
65553;BME280;72126;51.560;14.368;2023-11-19T11:06:26;99389.06;;;12.11;59.48
65553;BME280;72126;51.560;14.368;2023-11-19T11:08:52;99390.69;;;12.12;59.33
65553;BME280;72126;51.560;14.368;2023-11-19T11:11:18;99386.28;;;12.12;59.45
65553;BME280;72126;51.560;14.368;2023-11-19T11:13:44;99391.53;;;12.12;59.45
65553;BME280;72126;51.560;14.368;2023-11-19T11:16:12;99387.91;;;12.13;59.38
65553;BME280;72126;51.560;14.368;2023-11-19T11:18:38;99388.72;;;12.14;59.53
65553;BME280;72126;51.560;14.368;2023-11-19T11:21:09;99388.72;;;12.14;59.40
65553;BME280;72126;51.560;14.368;2023-11-19T11:23:47;99378.22;;;12.14;59.54
65553;BME280;72126;51.560;14.368;2023-11-19T11:26:31;99375.59;;;12.14;59.39
65553;BME280;72126;51.560;14.368;2023-11-19T11:29:10;99375.41;;;12.15;59.42
65553;BME280;72126;51.560;14.368;2023-11-19T11:31:58;99381.25;;;12.17;59.60
65553;BME280;72126;51.560;14.368;2023-11-19T11:39:34;99384.53;;;12.20;59.42
65553;BME280;72126;51.560;14.368;2023-11-19T11:45:04;99397.44;;;12.21;59.51
65553;BME280;72126;51.560;14.368;2023-11-19T11:50:14;99389.38;;;12.23;59.54
65553;BME280;72126;51.560;14.368;2023-11-19T11:55:36;99396.06;;;12.25;59.35
65553;BME280;72126;51.560;14.368;2023-11-19T11:58:04;99393.44;;;12.25;59.55
65553;BME280;72126;51.560;14.368;2023-11-19T12:00:38;99398.69;;;12.25;59.62
65553;BME280;72126;51.560;14.368;2023-11-19T12:03:05;99392.44;;;12.26;59.31
65553;BME280;72126;51.560;14.368;2023-11-19T12:05:31;99395.69;;;12.28;59.31
65553;BME280;72126;51.560;14.368;2023-11-19T12:08:00;99396.50;;;12.29;59.69
65553;BME280;72126;51.560;14.368;2023-11-19T12:10:26;99390.28;;;12.30;59.37
65553;BME280;72126;51.560;14.368;2023-11-19T12:12:58;99388.63;;;12.29;59.65
65553;BME280;72126;51.560;14.368;2023-11-19T12:15:23;99387.66;;;12.30;59.63
65553;BME280;72126;51.560;14.368;2023-11-19T12:17:49;99377.16;;;12.30;59.40
65553;BME280;72126;51.560;14.368;2023-11-19T12:20:15;99377.16;;;12.30;59.72
65553;BME280;72126;51.560;14.368;2023-11-19T12:22:42;99361.22;;;12.31;59.47
65553;BME280;72126;51.560;14.368;2023-11-19T12:25:11;99364.84;;;12.30;59.48
65553;BME280;72126;51.560;14.368;2023-11-19T12:27:39;99359.59;;;12.30;59.40
65553;BME280;72126;51.560;14.368;2023-11-19T12:30:05;99352.31;;;12.32;59.55
65553;BME280;72126;51.560;14.368;2023-11-19T12:32:43;99355.97;;;12.31;59.40
65553;BME280;72126;51.560;14.368;2023-11-19T12:35:09;99350.50;;;12.33;59.42
65553;BME280;72126;51.560;14.368;2023-11-19T12:37:39;99363.63;;;12.33;59.47
65553;BME280;72126;51.560;14.368;2023-11-19T12:40:15;99344.44;;;12.32;59.61
65553;BME280;72126;51.560;14.368;2023-11-19T12:42:41;99346.88;;;12.34;59.69
65553;BME280;72126;51.560;14.368;2023-11-19T12:45:06;99350.31;;;12.34;59.78
65553;BME280;72126;51.560;14.368;2023-11-19T12:47:32;99351.31;;;12.33;59.45
65553;BME280;72126;51.560;14.368;2023-11-19T12:49:57;99349.50;;;12.34;59.61
65553;BME280;72126;51.560;14.368;2023-11-19T12:52:23;99355.56;;;12.34;59.30
65553;BME280;72126;51.560;14.368;2023-11-19T12:54:48;99359.84;;;12.35;59.54